Time;durP1;ratioP1;P1;durP2;ratioP2;P2;SDS_P1;SDS_P2;PMS_P1;PMS_P2;Temp;Humidity;BMP_temperature;BMP_pressure;BME280_temperature;BME280_humidity;BME280_pressure;Samples;Min_cycle;Max_cycle;Signal;HPM_P1;HPM_P2
2024/01/08 00:01:51;;;;;;;5.90;4.93;;;;;;;-3.26;93.62;102835.69;5282459;28;20036;-72
2024/01/08 00:04:22;;;;;;;5.88;4.50;;;;;;;-3.26;93.59;102825.50;5282320;28;20032;-72
2024/01/08 00:06:54;;;;;;;6.40;4.87;;;;;;;-3.28;93.16;102831.25;5282411;28;20029;-72
2024/01/08 00:09:25;;;;;;;7.30;5.07;;;;;;;-3.27;93.63;102826.25;5281992;28;20037;-72
2024/01/08 00:11:57;;;;;;;6.23;4.77;;;;;;;-3.25;93.47;102831.47;5282344;28;20369;-72
2024/01/08 00:14:28;;;;;;;6.50;4.93;;;;;;;-3.22;94.54;102834.25;5282627;28;20056;-72
2024/01/08 00:16:59;;;;;;;6.23;5.03;;;;;;;-3.22;94.10;102832.63;5282251;28;20456;-72
2024/01/08 00:19:32;;;;;;;6.13;4.77;;;;;;;-3.24;94.23;102828.16;5282299;28;20043;-72
2024/01/08 00:22:03;;;;;;;7.47;5.65;;;;;;;-3.24;93.14;102836.69;5281946;28;20491;-72
2024/01/08 00:24:34;;;;;;;9.63;5.60;;;;;;;-3.26;93.37;102832.28;5282542;28;20029;-72
2024/01/08 00:27:06;;;;;;;7.63;5.80;;;;;;;-3.19;94.48;102837.97;5282297;28;20129;-72
2024/01/08 00:29:37;;;;;;;10.70;7.80;;;;;;;-3.24;92.41;102841.81;5280551;28;20400;-72
2024/01/08 00:32:08;;;;;;;12.17;8.30;;;;;;;-3.28;92.01;102837.25;5282115;28;20105;-73
2024/01/08 00:34:41;;;;;;;10.67;8.00;;;;;;;-3.25;91.66;102834.03;5282112;28;20048;-73
2024/01/08 00:37:12;;;;;;;11.02;7.30;;;;;;;-3.26;91.31;102837.38;5282893;28;20036;-73
2024/01/08 00:39:44;;;;;;;14.30;9.23;;;;;;;-3.20;92.66;102841.28;5286211;28;20494;-72
2024/01/08 00:42:15;;;;;;;11.23;8.83;;;;;;;-3.22;91.86;102835.19;5285997;28;20480;-72
2024/01/08 00:44:46;;;;;;;14.23;9.63;;;;;;;-3.25;91.44;102839.13;5284736;28;20166;-72
2024/01/08 00:47:18;;;;;;;11.70;8.70;;;;;;;-3.22;91.98;102841.91;5285712;28;20104;-72
2024/01/08 00:49:49;;;;;;;12.20;8.80;;;;;;;-3.22;92.09;102832.63;5285901;28;20052;-72
2024/01/08 00:52:21;;;;;;;11.93;9.37;;;;;;;-3.14;91.77;102830.63;5285815;28;20041;-73
2024/01/08 00:54:52;;;;;;;14.90;8.90;;;;;;;-3.18;92.43;102833.75;5286027;28;20040;-73
2024/01/08 00:57:23;;;;;;;13.23;9.53;;;;;;;-3.17;92.86;102835.50;5284578;28;20111;-72
2024/01/08 00:59:55;;;;;;;12.47;9.57;;;;;;;-3.13;94.00;102834.97;5285318;28;20075;-72
2024/01/08 01:02:26;;;;;;;15.63;11.23;;;;;;;-3.12;93.62;102840.19;5285557;28;20422;-72
2024/01/08 01:04:58;;;;;;;16.50;11.47;;;;;;;-3.13;93.22;102834.97;5285774;28;20468;-72
2024/01/08 01:07:29;;;;;;;20.20;13.13;;;;;;;-3.12;93.81;102840.19;5285186;28;20063;-72
2024/01/08 01:10:01;;;;;;;21.37;14.23;;;;;;;-3.10;93.61;102836.88;5285580;28;20419;-73
2024/01/08 01:12:32;;;;;;;21.07;14.80;;;;;;;-3.16;92.50;102840.72;5285593;28;20044;-73
2024/01/08 01:15:04;;;;;;;25.40;18.13;;;;;;;-3.14;92.81;102843.38;5283994;28;20030;-73
2024/01/08 01:17:35;;;;;;;23.48;16.25;;;;;;;-3.10;93.22;102842.88;5284964;28;20059;-73
2024/01/08 01:20:07;;;;;;;23.10;15.90;;;;;;;-3.10;92.86;102844.53;5284817;28;20041;-74
2024/01/08 01:22:39;;;;;;;24.95;16.65;;;;;;;-3.08;93.45;102845.53;5285137;28;20043;-73
2024/01/08 01:25:10;;;;;;;26.40;18.43;;;;;;;-3.09;93.32;102843.75;5285106;28;20078;-72
2024/01/08 01:27:42;;;;;;;22.57;16.17;;;;;;;-3.15;93.75;102842.50;5284945;28;20568;-72
2024/01/08 01:30:13;;;;;;;25.90;17.57;;;;;;;-3.15;94.37;102849.28;5284877;28;20063;-72
2024/01/08 01:32:44;;;;;;;24.97;14.50;;;;;;;-3.18;94.01;102844.81;5285132;28;20029;-72
2024/01/08 01:35:16;;;;;;;20.93;14.77;;;;;;;-3.22;92.99;102845.38;5284808;28;20025;-73
2024/01/08 01:37:47;;;;;;;16.67;11.10;;;;;;;-3.22;90.95;102839.38;5284777;28;20029;-72
2024/01/08 01:40:19;;;;;;;15.33;10.90;;;;;;;-3.28;90.05;102849.09;5284910;28;20127;-72
2024/01/08 01:42:56;;;;;;;12.10;9.32;;;;;;;-3.28;90.81;102847.47;5284727;28;20025;-72
2024/01/08 01:45:28;;;;;;;13.85;9.95;;;;;;;-3.32;91.07;102846.34;5284545;28;20111;-72
2024/01/08 01:47:59;;;;;;;14.50;9.00;;;;;;;-3.38;90.39;102843.31;5284697;28;20115;-72
2024/01/08 01:50:31;;;;;;;13.87;8.93;;;;;;;-3.47;91.52;102852.78;5283737;28;20448;-72
2024/01/08 01:53:02;;;;;;;10.37;7.80;;;;;;;-3.56;90.78;102854.63;5284542;28;20040;-73
2024/01/08 01:55:34;;;;;;;10.57;8.10;;;;;;;-3.60;90.71;102850.06;5283512;28;20029;-72
2024/01/08 01:58:06;;;;;;;8.93;7.57;;;;;;;-3.59;90.86;102850.19;5284238;28;20089;-72
2024/01/08 02:00:39;;;;;;;11.18;7.65;;;;;;;-3.60;91.72;102853.50;5284485;28;20500;-73
2024/01/08 02:03:11;;;;;;;10.40;7.45;;;;;;;-3.56;91.45;102854.63;5283987;28;20029;-72
2024/01/08 02:05:43;;;;;;;9.23;7.85;;;;;;;-3.52;91.50;102859.19;5284202;28;20039;-73
2024/01/08 02:08:15;;;;;;;9.50;7.83;;;;;;;-3.45;91.13;102858.00;5284200;28;20325;-73
2024/01/08 02:10:46;;;;;;;10.15;8.48;;;;;;;-3.42;91.18;102854.03;5284824;28;20024;-72
2024/01/08 02:13:18;;;;;;;8.43;7.23;;;;;;;-3.35;89.31;102852.84;5284545;28;20476;-73
2024/01/08 02:15:49;;;;;;;9.97;7.90;;;;;;;-3.32;90.35;102855.63;5284190;28;20509;-72
2024/01/08 02:18:20;;;;;;;9.63;7.00;;;;;;;-3.31;90.16;102859.97;5284607;28;20119;-72
2024/01/08 02:20:52;;;;;;;11.57;7.40;;;;;;;-3.32;90.86;102854.00;5284114;28;20048;-71
2024/01/08 02:23:23;;;;;;;9.73;7.70;;;;;;;-3.30;90.86;102848.97;5283811;28;20048;-71
2024/01/08 02:25:55;;;;;;;9.60;6.97;;;;;;;-3.30;91.42;102859.19;5284015;28;20032;-71
2024/01/08 02:28:26;;;;;;;9.50;6.68;;;;;;;-3.26;91.86;102861.22;5283847;28;20036;-71
2024/01/08 02:30:58;;;;;;;9.77;6.10;;;;;;;-3.30;91.50;102856.63;5283900;28;20036;-72
2024/01/08 02:33:29;;;;;;;5.47;4.73;;;;;;;-3.34;92.04;102855.50;5283926;28;20060;-71
2024/01/08 02:36:01;;;;;;;7.83;5.80;;;;;;;-3.43;91.75;102869.22;5283909;28;20078;-72
2024/01/08 02:38:32;;;;;;;6.37;4.47;;;;;;;-3.51;91.89;102868.59;5283178;28;20028;-72
2024/01/08 02:41:04;;;;;;;6.17;4.80;;;;;;;-3.68;92.34;102870.72;5283725;28;20175;-72
2024/01/08 02:43:35;;;;;;;5.97;4.77;;;;;;;-3.82;92.89;102866.19;5283387;28;20028;-72
2024/01/08 02:46:06;;;;;;;6.07;4.67;;;;;;;-3.90;92.52;102870.69;5283469;28;20077;-72
2024/01/08 02:48:38;;;;;;;7.57;5.27;;;;;;;-4.05;93.45;102874.56;5283356;28;20025;-72
2024/01/08 02:51:09;;;;;;;7.27;5.13;;;;;;;-4.13;93.69;102879.03;5283583;28;20083;-71
2024/01/08 02:53:40;;;;;;;7.17;5.50;;;;;;;-4.23;94.32;102879.97;5283575;28;20040;-72
2024/01/08 02:56:20;;;;;;;7.10;5.17;;;;;;;-4.30;95.29;102879.31;5283415;28;20036;-72
2024/01/08 02:58:52;;;;;;;6.78;5.07;;;;;;;-4.37;96.23;102877.94;5283561;28;20085;-72
2024/01/08 03:01:23;;;;;;;8.23;5.17;;;;;;;-4.41;96.49;102879.34;5281617;28;20546;-73
2024/01/08 03:03:54;;;;;;;7.13;5.00;;;;;;;-4.45;96.29;102892.59;5283432;28;20388;-73
2024/01/08 03:06:26;;;;;;;7.03;5.53;;;;;;;-4.47;96.95;102886.47;5283292;28;20032;-71
2024/01/08 03:08:57;;;;;;;7.50;5.90;;;;;;;-4.47;96.68;102883.94;5282940;28;20063;-72
2024/01/08 03:11:29;;;;;;;7.17;5.53;;;;;;;-4.55;97.19;102882.41;5282632;28;20597;-72
2024/01/08 03:14:00;;;;;;;9.53;6.20;;;;;;;-4.59;97.92;102883.84;5283355;28;20073;-72
2024/01/08 03:16:31;;;;;;;8.47;5.63;;;;;;;-4.60;98.37;102888.78;5282734;28;20052;-71
2024/01/08 03:19:03;;;;;;;7.80;5.97;;;;;;;-4.66;98.09;102878.09;5282584;28;20157;-71
2024/01/08 03:21:34;;;;;;;7.30;5.40;;;;;;;-4.65;98.39;102879.91;5281574;28;20033;-71
2024/01/08 03:24:06;;;;;;;9.37;6.00;;;;;;;-4.67;98.82;102879.78;5282868;28;20158;-71
2024/01/08 03:26:37;;;;;;;9.70;6.17;;;;;;;-4.66;99.40;102878.09;5282961;28;20454;-71
2024/01/08 03:29:09;;;;;;;7.70;5.83;;;;;;;-4.64;99.80;102880.00;5283361;28;20032;-71
2024/01/08 03:31:44;;;;;;;10.33;6.23;;;;;;;-4.60;99.99;102881.16;5282843;28;20032;-70
2024/01/08 03:34:16;;;;;;;8.55;6.30;;;;;;;-4.52;100.00;102877.59;5283477;28;20031;-71
2024/01/08 03:36:48;;;;;;;8.03;6.27;;;;;;;-4.45;99.87;102876.44;5283765;28;20020;-71
2024/01/08 03:39:19;;;;;;;7.55;5.57;;;;;;;-4.35;100.00;102888.25;5282719;28;20032;-71
2024/01/08 03:41:51;;;;;;;9.00;5.93;;;;;;;-4.28;99.71;102886.34;5282238;28;20057;-72
2024/01/08 03:44:23;;;;;;;8.80;6.00;;;;;;;-4.21;99.14;102890.28;5282494;28;20399;-72
2024/01/08 03:46:54;;;;;;;8.63;6.57;;;;;;;-4.16;99.29;102890.66;5282592;28;20032;-72
2024/01/08 03:49:26;;;;;;;8.80;6.43;;;;;;;-4.15;99.56;102887.31;5282405;28;20121;-71
2024/01/08 03:51:57;;;;;;;9.37;5.83;;;;;;;-4.09;99.68;102891.28;5283043;28;20052;-71
2024/01/08 03:54:29;;;;;;;8.97;6.03;;;;;;;-4.03;100.00;102891.75;5282372;28;20025;-71
2024/01/08 03:57:01;;;;;;;8.45;5.63;;;;;;;-4.03;100.00;102888.31;5282864;28;20028;-71
2024/01/08 03:59:32;;;;;;;7.53;5.93;;;;;;;-4.00;99.69;102893.66;5282816;28;20054;-72
2024/01/08 04:02:03;;;;;;;8.63;6.30;;;;;;;-3.93;99.52;102895.03;5281828;28;20044;-72
2024/01/08 04:04:35;;;;;;;9.43;6.10;;;;;;;-3.95;99.19;102892.38;5282198;28;20124;-71
2024/01/08 04:07:06;;;;;;;7.40;5.87;;;;;;;-3.92;98.70;102899.38;5282512;28;20039;-71
2024/01/08 04:09:39;;;;;;;7.60;6.00;;;;;;;-3.85;98.91;102902.53;5282102;28;20054;-71
2024/01/08 04:12:12;;;;;;;7.65;5.80;;;;;;;-3.82;99.03;102893.34;5283357;28;20028;-70
2024/01/08 04:14:43;;;;;;;8.32;6.03;;;;;;;-3.76;99.48;102892.19;5286674;28;20460;-71
2024/01/08 04:17:14;;;;;;;8.63;5.80;;;;;;;-3.72;99.40;102890.75;5286531;28;20035;-70
2024/01/08 04:19:46;;;;;;;7.70;6.17;;;;;;;-3.75;98.51;102890.50;5286309;28;20040;-69
2024/01/08 04:22:17;;;;;;;7.17;6.03;;;;;;;-3.74;98.52;102893.19;5286852;28;20033;-70
2024/01/08 04:24:48;;;;;;;8.33;5.57;;;;;;;-3.72;98.50;102888.22;5286550;28;20032;-70
2024/01/08 04:27:20;;;;;;;7.87;5.83;;;;;;;-3.68;98.56;102888.56;5285008;28;20032;-69
2024/01/08 04:29:52;;;;;;;6.27;5.50;;;;;;;-3.71;98.37;102900.19;5286466;28;20455;-70
2024/01/08 04:32:23;;;;;;;7.80;5.63;;;;;;;-3.68;98.24;102891.13;5286739;28;20625;-70
2024/01/08 04:34:54;;;;;;;9.43;6.23;;;;;;;-3.70;98.17;102891.78;5286562;28;20037;-71
2024/01/08 04:37:26;;;;;;;6.47;4.97;;;;;;;-3.69;97.63;102891.00;5286277;28;20467;-70
2024/01/08 04:39:58;;;;;;;6.90;5.30;;;;;;;-3.72;97.17;102889.13;5285982;28;20533;-70
2024/01/08 04:42:29;;;;;;;8.93;6.13;;;;;;;-3.69;97.64;102896.09;5286094;28;20032;-70
2024/01/08 04:45:00;;;;;;;7.60;5.50;;;;;;;-3.70;97.75;102887.56;5286635;28;20028;-70
2024/01/08 04:47:32;;;;;;;7.80;6.23;;;;;;;-3.70;97.82;102886.69;5286020;28;20144;-70
2024/01/08 04:50:03;;;;;;;9.63;5.50;;;;;;;-3.67;97.97;102892.91;5285770;28;20052;-71
2024/01/08 04:52:35;;;;;;;8.50;6.43;;;;;;;-3.72;96.72;102889.13;5286137;28;20025;-71
2024/01/08 04:55:06;;;;;;;7.00;5.50;;;;;;;-3.66;97.40;102896.34;5285939;28;20028;-71
2024/01/08 04:57:37;;;;;;;7.90;6.30;;;;;;;-3.69;96.72;102893.56;5285846;28;20024;-71
2024/01/08 05:00:11;;;;;;;8.73;5.13;;;;;;;-3.63;97.15;102898.25;5285895;28;20032;-70
2024/01/08 05:02:42;;;;;;;7.40;5.50;;;;;;;-3.61;97.93;102892.50;5285732;28;20028;-70
2024/01/08 05:05:14;;;;;;;10.37;5.40;;;;;;;-3.64;97.42;102893.91;5286151;28;20125;-71
2024/01/08 05:07:45;;;;;;;7.57;5.47;;;;;;;-3.63;97.00;102890.63;5285720;28;20047;-70
2024/01/08 05:10:17;;;;;;;6.03;4.93;;;;;;;-3.63;96.91;102885.50;5284247;28;20055;-71
2024/01/08 05:12:48;;;;;;;6.17;4.70;;;;;;;-3.60;96.87;102884.09;5285309;28;20045;-70
2024/01/08 05:15:19;;;;;;;8.13;5.80;;;;;;;-3.55;97.25;102887.00;5285249;28;20060;-70
2024/01/08 05:17:51;;;;;;;8.47;5.10;;;;;;;-3.56;97.59;102881.03;5285188;28;20091;-70
2024/01/08 05:20:22;;;;;;;9.03;6.07;;;;;;;-3.53;97.53;102885.44;5285645;28;20494;-70
2024/01/08 05:22:54;;;;;;;8.20;6.25;;;;;;;-3.56;97.45;102882.66;5285000;28;20040;-70
2024/01/08 05:25:25;;;;;;;7.40;5.67;;;;;;;-3.54;97.97;102878.56;5283518;28;20032;-70
2024/01/08 05:27:57;;;;;;;8.53;5.77;;;;;;;-3.53;98.15;102885.44;5285016;28;20082;-70
2024/01/08 05:30:28;;;;;;;10.93;6.40;;;;;;;-3.52;98.55;102889.78;5285500;28;20483;-70
2024/01/08 05:33:00;;;;;;;8.97;6.57;;;;;;;-3.51;98.64;102878.81;5285539;28;20039;-70
2024/01/08 05:35:33;;;;;;;10.43;7.60;;;;;;;-3.51;99.21;102878.81;5285074;28;20359;-70
2024/01/08 05:38:05;;;;;;;7.70;5.82;;;;;;;-3.55;99.40;102877.69;5284994;28;20028;-71
2024/01/08 05:40:36;;;;;;;9.17;5.57;;;;;;;-3.50;99.54;102883.16;5284991;28;20063;-69
2024/01/08 05:43:08;;;;;;;9.17;6.20;;;;;;;-3.53;99.53;102880.34;5284937;28;20052;-71
2024/01/08 05:45:39;;;;;;;9.63;5.90;;;;;;;-3.53;100.00;102882.91;5285078;28;20032;-71
2024/01/08 05:48:10;;;;;;;7.87;5.70;;;;;;;-3.46;100.00;102876.63;5285656;28;20039;-71
2024/01/08 05:50:42;;;;;;;9.70;6.17;;;;;;;-3.50;100.00;102886.56;5284872;28;20519;-71
2024/01/08 05:53:13;;;;;;;8.17;6.13;;;;;;;-3.49;100.00;102879.84;5284923;28;20028;-71
2024/01/08 05:55:45;;;;;;;9.67;6.73;;;;;;;-3.46;100.00;102881.72;5283467;28;20032;-71
2024/01/08 05:58:16;;;;;;;7.93;5.80;;;;;;;-3.48;100.00;102879.03;5284740;28;20505;-71
2024/01/08 06:00:47;;;;;;;9.77;6.57;;;;;;;-3.44;100.00;102883.63;5284699;28;20039;-71
2024/01/08 06:03:20;;;;;;;11.33;6.83;;;;;;;-3.44;100.00;102888.72;5283527;28;20056;-71
2024/01/08 06:05:51;;;;;;;8.93;6.65;;;;;;;-3.51;100.00;102879.72;5284863;28;20038;-71
2024/01/08 06:08:23;;;;;;;9.60;6.73;;;;;;;-3.42;100.00;102882.09;5284617;28;20375;-71
2024/01/08 06:10:54;;;;;;;10.00;7.00;;;;;;;-3.43;100.00;102876.88;5285241;28;20051;-71
2024/01/08 06:13:25;;;;;;;10.07;6.33;;;;;;;-3.43;100.00;102881.97;5284810;28;20112;-71
2024/01/08 06:15:57;;;;;;;11.07;7.00;;;;;;;-3.44;100.00;102875.97;5285150;28;20126;-71
2024/01/08 06:18:29;;;;;;;9.17;6.73;;;;;;;-3.43;100.00;102877.78;5284573;28;20115;-70
2024/01/08 06:21:01;;;;;;;;;;;;;;;-3.41;100.00;102880.41;5284795;28;20033;-72
2024/01/08 06:23:33;;;;;;;8.55;6.30;;;;;;;-3.42;100.00;102881.19;5284310;28;19982;-71
2024/01/08 06:26:04;;;;;;;8.80;7.07;;;;;;;-3.44;100.00;102875.97;5284737;28;20059;-71
2024/01/08 06:28:36;;;;;;;10.07;7.70;;;;;;;-3.42;100.00;102879.53;5284490;28;20029;-71
2024/01/08 06:31:07;;;;;;;10.63;7.07;;;;;;;-3.44;100.00;102873.44;5283914;28;20028;-71
2024/01/08 06:33:39;;;;;;;8.90;7.13;;;;;;;-3.43;100.00;102866.66;5284312;28;20111;-71
2024/01/08 06:36:10;;;;;;;9.37;7.37;;;;;;;-3.39;100.00;102871.25;5283848;28;20029;-71
2024/01/08 06:38:41;;;;;;;9.87;7.07;;;;;;;-3.35;100.00;102869.06;5284481;28;20032;-71
2024/01/08 06:41:13;;;;;;;8.57;6.80;;;;;;;-3.34;100.00;102870.81;5284192;28;20492;-70
2024/01/08 06:43:44;;;;;;;9.27;7.33;;;;;;;-3.35;100.00;102875.78;5284519;28;20040;-71
2024/01/08 06:46:17;;;;;;;10.97;7.67;;;;;;;-3.32;100.00;102865.84;5284028;28;20115;-71
2024/01/08 06:48:48;;;;;;;9.38;7.07;;;;;;;-3.31;100.00;102868.50;5284390;28;20432;-71
2024/01/08 06:51:20;;;;;;;9.93;7.70;;;;;;;-3.28;100.00;102869.50;5283931;28;20039;-71
2024/01/08 06:53:51;;;;;;;9.53;6.33;;;;;;;-3.24;100.00;102872.41;5283618;28;20064;-71
2024/01/08 06:56:22;;;;;;;13.23;8.67;;;;;;;-3.21;100.00;102867.53;5283814;28;20106;-71
2024/01/08 06:58:54;;;;;;;11.67;7.87;;;;;;;-3.21;100.00;102871.78;5283978;28;20033;-71
2024/01/08 07:01:25;;;;;;;10.47;7.97;;;;;;;-3.23;100.00;102866.56;5283990;28;20036;-72
2024/01/08 07:03:57;;;;;;;8.77;7.37;;;;;;;-3.22;100.00;102869.97;5283710;28;20051;-70
2024/01/08 07:06:28;;;;;;;10.43;7.50;;;;;;;-3.22;100.00;102869.97;5284155;28;20104;-69
2024/01/08 07:09:00;;;;;;;10.70;7.43;;;;;;;-3.18;100.00;102875.44;5284034;28;20380;-70
2024/01/08 07:11:31;;;;;;;10.13;7.73;;;;;;;-3.18;100.00;102874.56;5283358;28;20055;-71
2024/01/08 07:14:03;;;;;;;11.32;7.93;;;;;;;-3.17;100.00;102881.41;5283459;28;20466;-70
2024/01/08 07:16:35;;;;;;;11.67;8.47;;;;;;;-3.17;100.00;102883.97;5284074;28;20029;-70
2024/01/08 07:19:06;;;;;;;12.50;7.97;;;;;;;-3.19;100.00;102886.44;5283454;28;20528;-70
2024/01/08 07:21:37;;;;;;;12.57;8.63;;;;;;;-3.15;100.00;102879.91;5283720;28;20036;-71
2024/01/08 07:24:09;;;;;;;12.67;9.20;;;;;;;-3.12;100.00;102886.13;5283820;28;20068;-70
2024/01/08 07:26:40;;;;;;;12.20;8.70;;;;;;;-3.07;100.00;102889.03;5283265;28;20029;-70
2024/01/08 07:29:12;;;;;;;13.80;8.40;;;;;;;-3.09;100.00;102895.69;5283148;28;20036;-71
2024/01/08 07:31:43;;;;;;;13.37;9.17;;;;;;;-3.06;100.00;102889.91;5283206;28;20090;-71
2024/01/08 07:34:14;;;;;;;12.17;7.80;;;;;;;-3.03;100.00;102893.56;5284009;28;20029;-71
2024/01/08 07:36:46;;;;;;;15.10;8.20;;;;;;;-3.00;100.00;102895.47;5283667;28;20031;-71
2024/01/08 07:39:18;;;;;;;12.80;8.90;;;;;;;-3.00;100.00;102903.13;5283365;28;20380;-71
2024/01/08 07:41:49;;;;;;;11.77;8.68;;;;;;;-2.97;100.00;102905.94;5283082;28;20426;-70
2024/01/08 07:44:21;;;;;;;10.87;8.40;;;;;;;-2.97;100.00;102898.28;5283311;28;20067;-70
2024/01/08 07:46:53;;;;;;;13.03;8.60;;;;;;;-2.91;100.00;102910.59;5281989;28;20067;-70
2024/01/08 07:49:24;;;;;;;12.43;8.55;;;;;;;-2.92;100.00;102907.16;5282450;28;20052;-71
2024/01/08 07:51:55;;;;;;;10.13;8.40;;;;;;;-2.89;100.00;102916.72;5282931;28;20036;-71
2024/01/08 07:54:27;;;;;;;10.73;8.37;;;;;;;-2.86;100.00;102905.09;5283007;28;20039;-70
2024/01/08 07:56:58;;;;;;;11.83;8.20;;;;;;;-2.84;100.00;102912.84;5283186;28;20052;-70
2024/01/08 07:59:30;;;;;;;11.97;8.37;;;;;;;-2.88;100.00;102906.63;5283290;28;20041;-71
2024/01/08 08:02:01;;;;;;;13.60;8.83;;;;;;;-2.84;100.00;102900.09;5282982;28;20495;-71
2024/01/08 08:04:32;;;;;;;10.63;8.07;;;;;;;-2.81;100.00;102908.00;5283144;28;20429;-71
2024/01/08 08:07:04;;;;;;;9.73;7.77;;;;;;;-2.83;100.00;102909.53;5283002;28;20060;-71
2024/01/08 08:09:35;;;;;;;10.17;7.63;;;;;;;-2.82;100.00;102917.31;5282844;28;20033;-71
2024/01/08 08:12:07;;;;;;;8.80;6.90;;;;;;;-2.81;100.00;102911.41;5283164;28;20032;-71
2024/01/08 08:14:38;;;;;;;11.20;7.20;;;;;;;-2.82;100.00;102913.84;5282821;28;20429;-71
2024/01/08 08:17:10;;;;;;;9.20;7.53;;;;;;;-2.80;100.00;102915.75;5283484;28;20028;-72
2024/01/08 08:19:42;;;;;;;11.02;7.93;;;;;;;-2.79;100.00;102916.63;5283043;28;20165;-72
2024/01/08 08:22:14;;;;;;;10.13;7.03;;;;;;;-2.76;100.00;102921.97;5282544;28;20090;-72
2024/01/08 08:24:47;;;;;;;9.27;7.00;;;;;;;-2.73;100.00;102921.34;5283364;28;20387;-72
2024/01/08 08:27:18;;;;;;;8.50;6.60;;;;;;;-2.72;100.00;102930.75;5282685;28;20028;-71
2024/01/08 08:29:49;;;;;;;11.53;7.07;;;;;;;-2.70;100.00;102922.44;5282765;28;20033;-71
2024/01/08 08:32:21;;;;;;;9.67;6.33;;;;;;;-2.68;99.70;102922.56;5282453;28;20028;-71
2024/01/08 08:34:53;;;;;;;14.02;6.85;;;;;;;-2.64;100.00;102920.38;5283391;28;20415;-71
2024/01/08 08:37:24;;;;;;;10.90;6.80;;;;;;;-2.66;99.75;102914.22;5282726;28;20115;-71
2024/01/08 08:39:55;;;;;;;8.30;6.50;;;;;;;-2.60;99.83;102924.03;5283170;28;20036;-71
2024/01/08 08:42:27;;;;;;;10.80;7.43;;;;;;;-2.60;99.41;102927.47;5282406;28;20028;-71
2024/01/08 08:44:58;;;;;;;8.70;5.93;;;;;;;-2.61;99.08;102933.38;5281029;28;20531;-71
2024/01/08 08:47:29;;;;;;;10.40;6.43;;;;;;;-2.58;98.84;102925.94;5282564;28;20031;-71
2024/01/08 08:50:01;;;;;;;12.80;7.30;;;;;;;-2.56;98.85;102928.59;5282022;28;20257;-71
2024/01/08 08:52:33;;;;;;;8.38;5.82;;;;;;;-2.55;98.87;102935.47;5281467;28;20052;-71
2024/01/08 08:55:05;;;;;;;9.37;6.57;;;;;;;-2.52;99.17;102928.06;5282493;28;20441;-70
2024/01/08 08:57:36;;;;;;;8.47;6.07;;;;;;;-2.55;98.82;102925.25;5282132;28;20074;-71
2024/01/08 09:00:11;;;;;;;8.90;5.70;;;;;;;-2.50;99.75;102933.28;5286622;28;20352;-70
2024/01/08 09:02:43;;;;;;;9.50;5.93;;;;;;;-2.52;100.00;102932.28;5285773;28;20036;-70
2024/01/08 09:05:14;;;;;;;8.67;5.60;;;;;;;-2.51;100.00;102928.94;5286561;28;20028;-70
2024/01/08 09:07:45;;;;;;;7.80;6.53;;;;;;;-2.57;99.99;102932.81;5285869;28;20060;-71
2024/01/08 09:10:17;;;;;;;10.60;6.63;;;;;;;-2.56;100.00;102928.59;5285745;28;20102;-71
2024/01/08 09:12:48;;;;;;;9.30;6.30;;;;;;;-2.58;100.00;102938.72;5286862;28;20107;-71
2024/01/08 09:15:20;;;;;;;10.20;6.37;;;;;;;-2.59;100.00;102942.03;5286526;28;20028;-71
2024/01/08 09:17:51;;;;;;;9.70;6.27;;;;;;;-2.61;100.00;102932.47;5286170;28;20086;-71
2024/01/08 09:20:23;;;;;;;8.83;6.13;;;;;;;-2.56;100.00;102941.34;5285771;28;20036;-71
2024/01/08 09:22:54;;;;;;;7.00;5.80;;;;;;;-2.57;100.00;102942.16;5285780;28;20040;-70
2024/01/08 09:25:25;;;;;;;9.53;6.67;;;;;;;-2.58;100.00;102937.78;5285761;28;20036;-70
2024/01/08 09:27:57;;;;;;;7.80;6.00;;;;;;;-2.60;100.00;102944.47;5285594;28;20086;-70
2024/01/08 09:30:29;;;;;;;9.75;6.50;;;;;;;-2.62;100.00;102946.03;5285440;28;20028;-71
2024/01/08 09:33:01;;;;;;;8.95;6.28;;;;;;;-2.60;100.00;102941.91;5285694;28;20032;-71
2024/01/08 09:35:32;;;;;;;8.37;6.20;;;;;;;-2.62;100.00;102946.91;5286245;28;20055;-79
2024/01/08 09:38:04;;;;;;;9.13;5.87;;;;;;;-2.52;100.00;102955.25;5285553;28;20039;-72
2024/01/08 09:40:36;;;;;;;10.70;7.10;;;;;;;-2.49;100.00;102956.38;5285409;28;20414;-71
2024/01/08 09:43:09;;;;;;;8.30;6.70;;;;;;;-2.43;100.00;102958.47;5285929;28;20108;-70
2024/01/08 09:46:05;;;;;;;11.95;6.88;;;;;;;-2.45;100.00;102963.47;5285034;28;20024;-71
2024/01/08 09:48:37;;;;;;;7.68;6.45;;;;;;;-2.55;100.00;102965.25;5279806;28;20103;-71
2024/01/08 09:51:09;;;;;;;9.82;6.78;;;;;;;-2.60;100.00;102958.09;5283881;28;20132;-71
2024/01/08 09:53:42;;;;;;;9.27;7.03;;;;;;;-2.64;100.00;102973.06;5285236;28;20123;-71
2024/01/08 09:56:15;;;;;;;9.65;6.80;;;;;;;-2.70;100.00;102968.41;5284997;28;20039;-71
2024/01/08 09:58:46;;;;;;;11.23;7.82;;;;;;;-2.68;100.00;102966.84;5285082;28;20033;-71
2024/01/08 10:01:18;;;;;;;9.57;7.27;;;;;;;-2.60;100.00;102972.56;5284709;28;20036;-71
2024/01/08 10:03:49;;;;;;;10.67;8.17;;;;;;;-2.47;100.00;102959.94;5284908;28;20064;-71
2024/01/08 10:06:20;;;;;;;10.60;7.27;;;;;;;-2.41;100.00;102964.63;5284958;28;20043;-71
2024/01/08 10:08:52;;;;;;;9.53;7.83;;;;;;;-2.27;100.00;102965.63;5285154;28;20031;-71
2024/01/08 10:11:23;;;;;;;9.53;7.67;;;;;;;-2.02;100.00;102971.78;5283971;28;20037;-71
2024/01/08 10:13:55;;;;;;;9.57;7.00;;;;;;;-1.95;100.00;102969.69;5284835;28;20049;-71
2024/01/08 10:16:27;;;;;;;10.30;7.27;;;;;;;-1.97;100.00;102963.59;5284717;28;20068;-71
2024/01/08 10:18:59;;;;;;;9.88;7.10;;;;;;;-1.91;100.00;102958.94;5284380;28;20039;-71
2024/01/08 10:21:32;;;;;;;9.88;6.75;;;;;;;-1.89;100.00;102960.81;5285382;28;20036;-71
2024/01/08 10:24:08;;;;;;;7.60;6.15;;;;;;;-1.84;100.00;102962.03;5284713;28;20033;-72
2024/01/08 10:26:41;;;;;;;9.20;6.50;;;;;;;-1.79;100.00;102958.91;5284543;28;20087;-71
2024/01/08 10:29:13;;;;;;;7.28;5.75;;;;;;;-1.79;100.00;102956.38;5285039;28;20467;-71
2024/01/08 10:31:44;;;;;;;9.20;6.23;;;;;;;-1.58;99.60;102952.78;5284087;28;20120;-71
2024/01/08 10:34:16;;;;;;;6.93;5.63;;;;;;;-1.40;98.74;102958.34;5284843;28;20048;-72
2024/01/08 10:36:48;;;;;;;6.75;5.43;;;;;;;-1.08;96.38;102961.38;5284545;28;20036;-72
2024/01/08 10:39:21;;;;;;;8.25;5.60;;;;;;;-0.43;96.36;102956.47;5284684;28;20031;-72
2024/01/08 10:41:53;;;;;;;9.05;6.05;;;;;;;-0.06;92.06;102952.09;5284467;28;20483;-73
2024/01/08 10:44:25;;;;;;;7.70;5.25;;;;;;;0.17;90.65;102947.56;5284217;28;20029;-72
2024/01/08 10:46:59;;;;;;;6.57;5.53;;;;;;;0.02;90.11;102950.03;5283898;28;20033;-72
2024/01/08 10:49:35;;;;;;;6.18;4.88;;;;;;;-0.29;87.93;102947.09;5283874;28;20174;-73
2024/01/08 10:52:24;;;;;;;7.18;4.72;;;;;;;-0.68;87.04;102944.53;5283793;28;20043;-73
2024/01/08 10:55:00;;;;;;;8.13;5.13;;;;;;;-1.00;88.16;102944.88;5283798;28;20085;-72
2024/01/08 10:57:44;;;;;;;8.10;5.25;;;;;;;-0.60;88.54;102937.38;5284450;28;20101;-73
2024/01/08 11:00:15;;;;;;;6.55;5.20;;;;;;;-0.22;88.07;102941.63;5283445;28;20039;-73
2024/01/08 11:02:47;;;;;;;6.87;4.70;;;;;;;0.21;86.81;102946.97;5284257;28;20032;-73
2024/01/08 11:05:21;;;;;;;8.00;5.10;;;;;;;0.49;83.52;102941.03;5283633;28;20039;-73
2024/01/08 11:07:54;;;;;;;6.53;4.25;;;;;;;0.24;79.85;102936.00;5283685;28;20021;-74
2024/01/08 11:10:28;;;;;;;7.57;5.18;;;;;;;-0.21;79.74;102933.13;5283671;28;20016;-74
2024/01/08 11:12:59;;;;;;;7.10;4.93;;;;;;;-0.52;81.25;102935.34;5283698;28;20482;-74
2024/01/08 11:15:31;;;;;;;6.40;4.27;;;;;;;-0.68;80.82;102933.41;5284597;28;20031;-74
2024/01/08 11:18:03;;;;;;;9.68;4.65;;;;;;;-0.85;81.11;102924.56;5286228;28;20086;-73
2024/01/08 11:20:49;;;;;;;5.97;4.83;;;;;;;-0.85;82.16;102928.03;5285843;28;20117;-74
2024/01/08 11:23:38;;;;;;;6.82;4.38;;;;;;;-0.83;81.42;102923.91;5282876;28;20028;-73
2024/01/08 11:26:14;;;;;;;6.80;4.35;;;;;;;-0.84;80.45;102926.34;5283271;28;20027;-74
2024/01/08 11:29:06;;;;;;;7.70;4.07;;;;;;;-0.96;78.89;102931.53;5283089;28;20128;-74
2024/01/08 11:31:50;;;;;;;6.28;4.35;;;;;;;-0.74;78.67;102927.09;5283113;28;20154;-74
2024/01/08 11:34:59;;;;;;;7.45;4.40;;;;;;;-0.09;76.73;102925.38;5283820;28;20029;-74
2024/01/08 11:37:39;;;;;;;6.28;4.13;;;;;;;0.47;75.21;102914.41;5283563;28;20044;-75
2024/01/08 11:40:18;;;;;;;6.50;4.53;;;;;;;0.16;72.60;102922.69;5281844;28;20126;-75
2024/01/08 11:42:50;;;;;;;7.03;4.68;;;;;;;-0.22;73.24;102916.84;5282811;28;20487;-75